sensor_id;sensor_type;location;lat;lon;timestamp;P1;durP1;ratioP1;P2;durP2;ratioP2
47984;SDS011;33753;52.912;-7.342;2022-11-27T00:01:44;29.02;;;7.75;;
47984;SDS011;33753;52.912;-7.342;2022-11-27T00:04:12;27.88;;;6.68;;
47984;SDS011;33753;52.912;-7.342;2022-11-27T00:06:41;33.50;;;7.68;;
47984;SDS011;33753;52.912;-7.342;2022-11-27T00:09:11;32.92;;;6.97;;
47984;SDS011;33753;52.912;-7.342;2022-11-27T00:11:43;37.10;;;8.18;;
47984;SDS011;33753;52.912;-7.342;2022-11-27T00:14:13;21.98;;;8.02;;
47984;SDS011;33753;52.912;-7.342;2022-11-27T00:16:42;32.88;;;7.05;;
47984;SDS011;33753;52.912;-7.342;2022-11-27T00:19:11;32.85;;;6.65;;
47984;SDS011;33753;52.912;-7.342;2022-11-27T00:21:40;37.97;;;6.78;;
47984;SDS011;33753;52.912;-7.342;2022-11-27T00:26:37;24.88;;;6.97;;
47984;SDS011;33753;52.912;-7.342;2022-11-27T00:29:08;22.30;;;5.65;;
47984;SDS011;33753;52.912;-7.342;2022-11-27T00:31:37;18.90;;;4.18;;
47984;SDS011;33753;52.912;-7.342;2022-11-27T00:34:06;26.55;;;4.97;;
47984;SDS011;33753;52.912;-7.342;2022-11-27T00:36:35;27.25;;;5.35;;
47984;SDS011;33753;52.912;-7.342;2022-11-27T00:39:05;30.65;;;5.45;;
47984;SDS011;33753;52.912;-7.342;2022-11-27T00:41:34;24.88;;;6.07;;
47984;SDS011;33753;52.912;-7.342;2022-11-27T00:44:04;26.38;;;6.47;;
47984;SDS011;33753;52.912;-7.342;2022-11-27T00:46:34;25.38;;;6.53;;
47984;SDS011;33753;52.912;-7.342;2022-11-27T00:49:04;22.67;;;5.00;;
47984;SDS011;33753;52.912;-7.342;2022-11-27T00:51:33;26.15;;;8.25;;
47984;SDS011;33753;52.912;-7.342;2022-11-27T00:54:02;27.48;;;5.47;;
47984;SDS011;33753;52.912;-7.342;2022-11-27T00:56:31;31.23;;;7.57;;
47984;SDS011;33753;52.912;-7.342;2022-11-27T00:59:01;18.25;;;5.43;;
47984;SDS011;33753;52.912;-7.342;2022-11-27T01:01:31;23.55;;;4.43;;
47984;SDS011;33753;52.912;-7.342;2022-11-27T01:04:02;23.50;;;6.72;;
47984;SDS011;33753;52.912;-7.342;2022-11-27T01:06:32;25.08;;;7.13;;
47984;SDS011;33753;52.912;-7.342;2022-11-27T01:09:01;20.58;;;6.35;;
47984;SDS011;33753;52.912;-7.342;2022-11-27T01:11:31;21.55;;;4.63;;
47984;SDS011;33753;52.912;-7.342;2022-11-27T01:14:10;19.58;;;4.43;;
47984;SDS011;33753;52.912;-7.342;2022-11-27T01:16:40;25.05;;;7.10;;
47984;SDS011;33753;52.912;-7.342;2022-11-27T01:19:11;26.00;;;5.78;;
47984;SDS011;33753;52.912;-7.342;2022-11-27T01:21:41;24.83;;;5.28;;
47984;SDS011;33753;52.912;-7.342;2022-11-27T01:24:09;20.63;;;4.95;;
47984;SDS011;33753;52.912;-7.342;2022-11-27T01:26:39;27.38;;;5.72;;
47984;SDS011;33753;52.912;-7.342;2022-11-27T01:29:09;24.88;;;6.15;;
47984;SDS011;33753;52.912;-7.342;2022-11-27T01:31:38;33.17;;;6.95;;
47984;SDS011;33753;52.912;-7.342;2022-11-27T01:34:10;30.27;;;5.82;;
47984;SDS011;33753;52.912;-7.342;2022-11-27T01:36:42;31.23;;;5.25;;
47984;SDS011;33753;52.912;-7.342;2022-11-27T01:39:13;42.88;;;9.55;;
47984;SDS011;33753;52.912;-7.342;2022-11-27T01:41:43;31.38;;;7.15;;
47984;SDS011;33753;52.912;-7.342;2022-11-27T01:47:31;25.50;;;6.13;;
47984;SDS011;33753;52.912;-7.342;2022-11-27T01:50:11;37.75;;;8.43;;
47984;SDS011;33753;52.912;-7.342;2022-11-27T01:52:43;29.15;;;6.53;;
47984;SDS011;33753;52.912;-7.342;2022-11-27T01:55:17;23.92;;;5.05;;
47984;SDS011;33753;52.912;-7.342;2022-11-27T01:57:51;28.67;;;6.55;;
47984;SDS011;33753;52.912;-7.342;2022-11-27T02:00:22;26.77;;;5.88;;
47984;SDS011;33753;52.912;-7.342;2022-11-27T02:02:52;27.80;;;6.82;;
47984;SDS011;33753;52.912;-7.342;2022-11-27T02:05:23;20.13;;;5.05;;
47984;SDS011;33753;52.912;-7.342;2022-11-27T02:07:54;22.10;;;4.60;;
47984;SDS011;33753;52.912;-7.342;2022-11-27T02:10:27;23.52;;;5.65;;
47984;SDS011;33753;52.912;-7.342;2022-11-27T02:13:06;36.65;;;6.32;;
47984;SDS011;33753;52.912;-7.342;2022-11-27T02:15:42;29.52;;;6.72;;
47984;SDS011;33753;52.912;-7.342;2022-11-27T02:18:17;26.48;;;6.32;;
47984;SDS011;33753;52.912;-7.342;2022-11-27T02:21:12;20.83;;;4.85;;
47984;SDS011;33753;52.912;-7.342;2022-11-27T02:23:58;25.38;;;5.00;;
47984;SDS011;33753;52.912;-7.342;2022-11-27T02:29:40;30.85;;;5.10;;
47984;SDS011;33753;52.912;-7.342;2022-11-27T02:32:14;30.63;;;5.50;;
47984;SDS011;33753;52.912;-7.342;2022-11-27T02:34:47;27.13;;;5.75;;
47984;SDS011;33753;52.912;-7.342;2022-11-27T02:37:22;28.55;;;4.88;;
47984;SDS011;33753;52.912;-7.342;2022-11-27T02:39:55;28.50;;;6.13;;
47984;SDS011;33753;52.912;-7.342;2022-11-27T02:42:29;29.75;;;7.68;;
47984;SDS011;33753;52.912;-7.342;2022-11-27T02:45:05;32.00;;;6.50;;
47984;SDS011;33753;52.912;-7.342;2022-11-27T02:47:39;27.92;;;7.00;;
47984;SDS011;33753;52.912;-7.342;2022-11-27T02:50:11;29.08;;;7.80;;
47984;SDS011;33753;52.912;-7.342;2022-11-27T02:52:43;32.10;;;7.47;;
47984;SDS011;33753;52.912;-7.342;2022-11-27T02:55:13;27.50;;;6.40;;
47984;SDS011;33753;52.912;-7.342;2022-11-27T02:57:46;25.48;;;6.28;;
47984;SDS011;33753;52.912;-7.342;2022-11-27T03:00:19;29.30;;;7.30;;
47984;SDS011;33753;52.912;-7.342;2022-11-27T03:02:48;35.22;;;6.72;;
47984;SDS011;33753;52.912;-7.342;2022-11-27T03:05:22;31.00;;;6.72;;
47984;SDS011;33753;52.912;-7.342;2022-11-27T03:07:55;27.35;;;6.80;;
47984;SDS011;33753;52.912;-7.342;2022-11-27T03:10:28;30.25;;;8.23;;
47984;SDS011;33753;52.912;-7.342;2022-11-27T03:13:00;33.63;;;6.05;;
47984;SDS011;33753;52.912;-7.342;2022-11-27T03:15:33;33.88;;;6.40;;
47984;SDS011;33753;52.912;-7.342;2022-11-27T03:18:13;31.25;;;7.50;;
47984;SDS011;33753;52.912;-7.342;2022-11-27T03:20:50;24.08;;;5.82;;
47984;SDS011;33753;52.912;-7.342;2022-11-27T03:23:28;32.20;;;8.18;;
47984;SDS011;33753;52.912;-7.342;2022-11-27T03:25:57;35.55;;;6.60;;
47984;SDS011;33753;52.912;-7.342;2022-11-27T03:28:26;26.95;;;5.50;;
47984;SDS011;33753;52.912;-7.342;2022-11-27T03:30:57;32.60;;;6.05;;
47984;SDS011;33753;52.912;-7.342;2022-11-27T03:33:25;31.17;;;5.60;;
47984;SDS011;33753;52.912;-7.342;2022-11-27T03:35:54;24.02;;;6.22;;
47984;SDS011;33753;52.912;-7.342;2022-11-27T03:43:22;26.83;;;5.13;;
47984;SDS011;33753;52.912;-7.342;2022-11-27T03:45:56;19.55;;;4.95;;
47984;SDS011;33753;52.912;-7.342;2022-11-27T03:48:29;22.13;;;7.10;;
47984;SDS011;33753;52.912;-7.342;2022-11-27T03:51:06;26.77;;;5.32;;
47984;SDS011;33753;52.912;-7.342;2022-11-27T03:53:40;22.92;;;5.03;;
47984;SDS011;33753;52.912;-7.342;2022-11-27T03:56:16;25.03;;;4.70;;
47984;SDS011;33753;52.912;-7.342;2022-11-27T03:58:53;28.30;;;6.22;;
47984;SDS011;33753;52.912;-7.342;2022-11-27T04:01:27;24.80;;;5.75;;
47984;SDS011;33753;52.912;-7.342;2022-11-27T04:03:57;23.27;;;5.25;;
47984;SDS011;33753;52.912;-7.342;2022-11-27T04:06:26;21.85;;;5.18;;
47984;SDS011;33753;52.912;-7.342;2022-11-27T04:11:22;26.58;;;6.57;;
47984;SDS011;33753;52.912;-7.342;2022-11-27T04:16:19;27.52;;;7.35;;
47984;SDS011;33753;52.912;-7.342;2022-11-27T04:18:49;26.92;;;5.40;;
47984;SDS011;33753;52.912;-7.342;2022-11-27T04:21:18;23.17;;;5.35;;
47984;SDS011;33753;52.912;-7.342;2022-11-27T04:23:47;27.02;;;4.30;;
47984;SDS011;33753;52.912;-7.342;2022-11-27T04:26:15;33.67;;;6.95;;
47984;SDS011;33753;52.912;-7.342;2022-11-27T04:28:44;21.33;;;4.85;;
47984;SDS011;33753;52.912;-7.342;2022-11-27T04:31:12;31.50;;;6.53;;
47984;SDS011;33753;52.912;-7.342;2022-11-27T04:33:40;22.08;;;6.05;;
47984;SDS011;33753;52.912;-7.342;2022-11-27T04:38:38;30.77;;;6.10;;
47984;SDS011;33753;52.912;-7.342;2022-11-27T04:41:07;21.55;;;5.38;;
47984;SDS011;33753;52.912;-7.342;2022-11-27T04:46:03;28.58;;;5.97;;
47984;SDS011;33753;52.912;-7.342;2022-11-27T04:48:32;25.63;;;5.28;;
47984;SDS011;33753;52.912;-7.342;2022-11-27T04:53:30;22.15;;;4.07;;
47984;SDS011;33753;52.912;-7.342;2022-11-27T04:56:00;26.10;;;6.63;;
47984;SDS011;33753;52.912;-7.342;2022-11-27T04:58:28;24.65;;;5.75;;
47984;SDS011;33753;52.912;-7.342;2022-11-27T05:03:25;28.63;;;4.53;;
47984;SDS011;33753;52.912;-7.342;2022-11-27T05:05:54;30.80;;;5.40;;
47984;SDS011;33753;52.912;-7.342;2022-11-27T05:08:23;29.48;;;8.48;;
47984;SDS011;33753;52.912;-7.342;2022-11-27T05:10:59;28.27;;;4.22;;
47984;SDS011;33753;52.912;-7.342;2022-11-27T05:13:29;23.55;;;5.40;;
47984;SDS011;33753;52.912;-7.342;2022-11-27T05:15:58;25.90;;;6.22;;
47984;SDS011;33753;52.912;-7.342;2022-11-27T05:18:26;23.90;;;5.57;;
47984;SDS011;33753;52.912;-7.342;2022-11-27T05:23:24;28.35;;;6.63;;
47984;SDS011;33753;52.912;-7.342;2022-11-27T05:30:52;23.92;;;5.65;;
47984;SDS011;33753;52.912;-7.342;2022-11-27T05:33:21;24.10;;;4.28;;
47984;SDS011;33753;52.912;-7.342;2022-11-27T05:35:49;24.15;;;5.70;;
47984;SDS011;33753;52.912;-7.342;2022-11-27T05:38:17;22.92;;;5.40;;
47984;SDS011;33753;52.912;-7.342;2022-11-27T05:40:46;43.60;;;6.75;;
47984;SDS011;33753;52.912;-7.342;2022-11-27T05:43:15;25.67;;;6.00;;
47984;SDS011;33753;52.912;-7.342;2022-11-27T05:45:45;21.15;;;4.30;;
47984;SDS011;33753;52.912;-7.342;2022-11-27T05:48:18;21.27;;;4.28;;
47984;SDS011;33753;52.912;-7.342;2022-11-27T05:53:44;30.70;;;5.78;;
47984;SDS011;33753;52.912;-7.342;2022-11-27T05:56:14;30.20;;;7.75;;
47984;SDS011;33753;52.912;-7.342;2022-11-27T05:58:45;21.10;;;4.72;;
47984;SDS011;33753;52.912;-7.342;2022-11-27T06:01:16;23.05;;;4.40;;
47984;SDS011;33753;52.912;-7.342;2022-11-27T06:03:46;35.72;;;6.53;;
47984;SDS011;33753;52.912;-7.342;2022-11-27T06:06:15;40.00;;;6.18;;
47984;SDS011;33753;52.912;-7.342;2022-11-27T06:08:45;25.38;;;5.82;;
47984;SDS011;33753;52.912;-7.342;2022-11-27T06:11:15;31.58;;;5.65;;
47984;SDS011;33753;52.912;-7.342;2022-11-27T06:13:46;29.38;;;5.47;;
47984;SDS011;33753;52.912;-7.342;2022-11-27T06:16:20;30.73;;;7.30;;
47984;SDS011;33753;52.912;-7.342;2022-11-27T06:18:50;31.52;;;5.47;;
47984;SDS011;33753;52.912;-7.342;2022-11-27T06:21:20;26.65;;;5.35;;
47984;SDS011;33753;52.912;-7.342;2022-11-27T06:23:52;36.33;;;7.07;;
47984;SDS011;33753;52.912;-7.342;2022-11-27T06:26:22;32.30;;;6.93;;
47984;SDS011;33753;52.912;-7.342;2022-11-27T06:28:52;22.60;;;4.70;;
47984;SDS011;33753;52.912;-7.342;2022-11-27T06:31:25;26.15;;;6.97;;
47984;SDS011;33753;52.912;-7.342;2022-11-27T06:33:55;28.92;;;6.32;;
47984;SDS011;33753;52.912;-7.342;2022-11-27T06:36:26;29.50;;;5.45;;
47984;SDS011;33753;52.912;-7.342;2022-11-27T06:38:56;33.78;;;6.05;;
47984;SDS011;33753;52.912;-7.342;2022-11-27T06:41:25;20.58;;;6.88;;
47984;SDS011;33753;52.912;-7.342;2022-11-27T06:43:54;29.60;;;8.35;;
47984;SDS011;33753;52.912;-7.342;2022-11-27T06:46:27;29.83;;;6.03;;
47984;SDS011;33753;52.912;-7.342;2022-11-27T06:48:56;32.17;;;5.43;;
47984;SDS011;33753;52.912;-7.342;2022-11-27T06:51:27;21.95;;;6.97;;
47984;SDS011;33753;52.912;-7.342;2022-11-27T06:53:57;27.60;;;6.03;;
47984;SDS011;33753;52.912;-7.342;2022-11-27T06:56:27;35.33;;;5.75;;
47984;SDS011;33753;52.912;-7.342;2022-11-27T06:58:59;20.70;;;5.50;;
47984;SDS011;33753;52.912;-7.342;2022-11-27T07:01:30;27.45;;;5.40;;
47984;SDS011;33753;52.912;-7.342;2022-11-27T07:04:00;38.30;;;6.03;;
47984;SDS011;33753;52.912;-7.342;2022-11-27T07:08:56;23.08;;;5.13;;
47984;SDS011;33753;52.912;-7.342;2022-11-27T07:11:25;24.10;;;4.32;;
47984;SDS011;33753;52.912;-7.342;2022-11-27T07:13:56;24.17;;;4.28;;
47984;SDS011;33753;52.912;-7.342;2022-11-27T07:16:26;32.78;;;5.57;;
47984;SDS011;33753;52.912;-7.342;2022-11-27T07:18:58;26.33;;;4.93;;
47984;SDS011;33753;52.912;-7.342;2022-11-27T07:21:29;22.35;;;5.28;;
47984;SDS011;33753;52.912;-7.342;2022-11-27T07:23:59;30.95;;;5.38;;
47984;SDS011;33753;52.912;-7.342;2022-11-27T07:26:28;40.30;;;8.13;;
47984;SDS011;33753;52.912;-7.342;2022-11-27T07:28:57;33.40;;;5.57;;
47984;SDS011;33753;52.912;-7.342;2022-11-27T07:33:55;32.60;;;5.35;;
47984;SDS011;33753;52.912;-7.342;2022-11-27T07:36:26;23.10;;;5.45;;
47984;SDS011;33753;52.912;-7.342;2022-11-27T07:38:56;42.63;;;6.28;;
47984;SDS011;33753;52.912;-7.342;2022-11-27T07:41:24;23.55;;;5.47;;
47984;SDS011;33753;52.912;-7.342;2022-11-27T07:43:59;24.73;;;5.45;;
47984;SDS011;33753;52.912;-7.342;2022-11-27T07:46:28;23.15;;;5.00;;
47984;SDS011;33753;52.912;-7.342;2022-11-27T07:48:57;28.08;;;5.80;;
47984;SDS011;33753;52.912;-7.342;2022-11-27T07:51:31;20.05;;;4.65;;
47984;SDS011;33753;52.912;-7.342;2022-11-27T07:54:05;35.08;;;5.40;;
47984;SDS011;33753;52.912;-7.342;2022-11-27T07:59:06;23.35;;;5.60;;
47984;SDS011;33753;52.912;-7.342;2022-11-27T08:01:41;27.73;;;5.28;;
47984;SDS011;33753;52.912;-7.342;2022-11-27T08:04:13;30.55;;;6.15;;
47984;SDS011;33753;52.912;-7.342;2022-11-27T08:06:51;22.92;;;5.25;;
47984;SDS011;33753;52.912;-7.342;2022-11-27T08:09:28;25.60;;;6.25;;
47984;SDS011;33753;52.912;-7.342;2022-11-27T08:12:02;28.40;;;4.53;;
47984;SDS011;33753;52.912;-7.342;2022-11-27T08:14:30;25.48;;;5.43;;
47984;SDS011;33753;52.912;-7.342;2022-11-27T08:17:03;31.95;;;5.82;;
47984;SDS011;33753;52.912;-7.342;2022-11-27T08:19:31;28.90;;;7.35;;
47984;SDS011;33753;52.912;-7.342;2022-11-27T08:24:29;26.65;;;6.82;;
47984;SDS011;33753;52.912;-7.342;2022-11-27T08:26:57;23.38;;;5.72;;
47984;SDS011;33753;52.912;-7.342;2022-11-27T08:29:26;22.77;;;5.30;;
47984;SDS011;33753;52.912;-7.342;2022-11-27T08:31:59;24.67;;;5.78;;
47984;SDS011;33753;52.912;-7.342;2022-11-27T08:34:28;21.98;;;3.72;;
47984;SDS011;33753;52.912;-7.342;2022-11-27T08:41:57;16.58;;;4.22;;
47984;SDS011;33753;52.912;-7.342;2022-11-27T08:44:26;30.88;;;6.35;;
47984;SDS011;33753;52.912;-7.342;2022-11-27T08:46:54;17.67;;;3.92;;
47984;SDS011;33753;52.912;-7.342;2022-11-27T08:49:22;21.13;;;4.15;;
47984;SDS011;33753;52.912;-7.342;2022-11-27T08:51:51;23.17;;;3.97;;
47984;SDS011;33753;52.912;-7.342;2022-11-27T08:56:49;26.33;;;4.75;;
47984;SDS011;33753;52.912;-7.342;2022-11-27T08:59:18;19.73;;;4.85;;
47984;SDS011;33753;52.912;-7.342;2022-11-27T09:01:46;22.38;;;5.05;;
47984;SDS011;33753;52.912;-7.342;2022-11-27T09:04:15;30.23;;;4.55;;
47984;SDS011;33753;52.912;-7.342;2022-11-27T09:09:13;18.60;;;3.47;;
47984;SDS011;33753;52.912;-7.342;2022-11-27T09:11:42;30.80;;;7.25;;
47984;SDS011;33753;52.912;-7.342;2022-11-27T09:14:12;22.85;;;3.92;;
47984;SDS011;33753;52.912;-7.342;2022-11-27T09:16:41;33.20;;;5.95;;
47984;SDS011;33753;52.912;-7.342;2022-11-27T09:19:09;18.70;;;3.67;;
47984;SDS011;33753;52.912;-7.342;2022-11-27T09:21:39;26.35;;;5.93;;
47984;SDS011;33753;52.912;-7.342;2022-11-27T09:24:07;24.00;;;5.22;;
47984;SDS011;33753;52.912;-7.342;2022-11-27T09:26:36;20.55;;;4.22;;
47984;SDS011;33753;52.912;-7.342;2022-11-27T09:29:07;21.10;;;4.70;;
47984;SDS011;33753;52.912;-7.342;2022-11-27T09:31:38;22.50;;;4.80;;
47984;SDS011;33753;52.912;-7.342;2022-11-27T09:34:07;18.52;;;3.65;;
47984;SDS011;33753;52.912;-7.342;2022-11-27T09:36:36;16.65;;;3.28;;
47984;SDS011;33753;52.912;-7.342;2022-11-27T09:39:04;18.42;;;4.35;;
47984;SDS011;33753;52.912;-7.342;2022-11-27T09:41:38;18.50;;;4.18;;
47984;SDS011;33753;52.912;-7.342;2022-11-27T09:44:15;16.63;;;3.35;;
47984;SDS011;33753;52.912;-7.342;2022-11-27T09:47:00;11.23;;;2.72;;
47984;SDS011;33753;52.912;-7.342;2022-11-27T09:49:39;20.05;;;3.92;;
47984;SDS011;33753;52.912;-7.342;2022-11-27T09:52:13;17.20;;;4.72;;
47984;SDS011;33753;52.912;-7.342;2022-11-27T09:54:50;12.25;;;3.40;;
47984;SDS011;33753;52.912;-7.342;2022-11-27T09:57:24;16.02;;;3.72;;
47984;SDS011;33753;52.912;-7.342;2022-11-27T09:59:57;22.42;;;3.72;;
47984;SDS011;33753;52.912;-7.342;2022-11-27T10:02:32;15.95;;;2.28;;
47984;SDS011;33753;52.912;-7.342;2022-11-27T10:05:03;16.60;;;3.25;;
47984;SDS011;33753;52.912;-7.342;2022-11-27T10:07:45;12.80;;;3.00;;
47984;SDS011;33753;52.912;-7.342;2022-11-27T10:10:36;13.45;;;2.00;;
47984;SDS011;33753;52.912;-7.342;2022-11-27T10:13:12;18.73;;;4.05;;
47984;SDS011;33753;52.912;-7.342;2022-11-27T10:15:46;12.07;;;3.55;;
47984;SDS011;33753;52.912;-7.342;2022-11-27T10:18:24;15.95;;;3.15;;
47984;SDS011;33753;52.912;-7.342;2022-11-27T10:21:00;13.50;;;3.15;;
47984;SDS011;33753;52.912;-7.342;2022-11-27T10:23:38;10.73;;;2.35;;
47984;SDS011;33753;52.912;-7.342;2022-11-27T10:26:14;12.25;;;2.08;;
47984;SDS011;33753;52.912;-7.342;2022-11-27T10:28:48;8.98;;;2.70;;
47984;SDS011;33753;52.912;-7.342;2022-11-27T10:31:28;8.95;;;2.22;;
47984;SDS011;33753;52.912;-7.342;2022-11-27T10:34:06;9.88;;;2.75;;
47984;SDS011;33753;52.912;-7.342;2022-11-27T10:36:47;15.35;;;2.97;;
47984;SDS011;33753;52.912;-7.342;2022-11-27T10:39:18;11.35;;;3.17;;
47984;SDS011;33753;52.912;-7.342;2022-11-27T10:41:53;11.45;;;2.80;;
47984;SDS011;33753;52.912;-7.342;2022-11-27T10:44:27;10.18;;;1.58;;
47984;SDS011;33753;52.912;-7.342;2022-11-27T10:47:00;9.73;;;2.13;;
47984;SDS011;33753;52.912;-7.342;2022-11-27T10:49:32;8.55;;;2.05;;
47984;SDS011;33753;52.912;-7.342;2022-11-27T10:52:02;7.88;;;2.22;;
47984;SDS011;33753;52.912;-7.342;2022-11-27T10:54:31;7.80;;;1.77;;
47984;SDS011;33753;52.912;-7.342;2022-11-27T10:57:07;6.35;;;1.00;;
47984;SDS011;33753;52.912;-7.342;2022-11-27T10:59:49;5.20;;;1.10;;
47984;SDS011;33753;52.912;-7.342;2022-11-27T11:02:29;5.03;;;1.00;;
47984;SDS011;33753;52.912;-7.342;2022-11-27T11:05:09;7.60;;;2.08;;
47984;SDS011;33753;52.912;-7.342;2022-11-27T11:08:00;4.28;;;0.82;;
47984;SDS011;33753;52.912;-7.342;2022-11-27T11:10:32;12.13;;;2.50;;
47984;SDS011;33753;52.912;-7.342;2022-11-27T11:13:12;4.20;;;0.82;;
47984;SDS011;33753;52.912;-7.342;2022-11-27T11:15:48;6.20;;;0.80;;
47984;SDS011;33753;52.912;-7.342;2022-11-27T11:18:28;3.58;;;0.85;;
47984;SDS011;33753;52.912;-7.342;2022-11-27T11:21:00;7.70;;;1.60;;
47984;SDS011;33753;52.912;-7.342;2022-11-27T11:23:33;6.03;;;1.50;;
47984;SDS011;33753;52.912;-7.342;2022-11-27T11:26:04;6.80;;;1.27;;
47984;SDS011;33753;52.912;-7.342;2022-11-27T11:28:39;2.17;;;0.47;;
47984;SDS011;33753;52.912;-7.342;2022-11-27T11:31:16;3.40;;;0.47;;
47984;SDS011;33753;52.912;-7.342;2022-11-27T11:33:47;4.70;;;1.17;;
47984;SDS011;33753;52.912;-7.342;2022-11-27T11:36:20;4.80;;;0.93;;
47984;SDS011;33753;52.912;-7.342;2022-11-27T11:38:49;5.80;;;1.50;;
47984;SDS011;33753;52.912;-7.342;2022-11-27T11:41:19;3.10;;;0.50;;
47984;SDS011;33753;52.912;-7.342;2022-11-27T11:43:54;6.47;;;1.08;;
47984;SDS011;33753;52.912;-7.342;2022-11-27T11:46:25;3.85;;;0.80;;
47984;SDS011;33753;52.912;-7.342;2022-11-27T11:48:57;0.95;;;0.20;;
47984;SDS011;33753;52.912;-7.342;2022-11-27T11:54:41;1.83;;;0.40;;
47984;SDS011;33753;52.912;-7.342;2022-11-27T12:00:40;3.40;;;0.85;;
47984;SDS011;33753;52.912;-7.342;2022-11-27T12:03:32;2.50;;;0.35;;
47984;SDS011;33753;52.912;-7.342;2022-11-27T12:06:11;1.77;;;0.43;;
47984;SDS011;33753;52.912;-7.342;2022-11-27T12:08:55;0.93;;;0.20;;
47984;SDS011;33753;52.912;-7.342;2022-11-27T12:11:38;1.58;;;0.47;;
47984;SDS011;33753;52.912;-7.342;2022-11-27T12:14:15;1.00;;;0.28;;
47984;SDS011;33753;52.912;-7.342;2022-11-27T12:19:34;0.85;;;0.32;;
47984;SDS011;33753;52.912;-7.342;2022-11-27T12:22:20;1.50;;;0.20;;
47984;SDS011;33753;52.912;-7.342;2022-11-27T12:25:04;2.22;;;0.75;;
47984;SDS011;33753;52.912;-7.342;2022-11-27T12:27:51;1.02;;;0.20;;
47984;SDS011;33753;52.912;-7.342;2022-11-27T12:30:34;1.23;;;0.30;;
47984;SDS011;33753;52.912;-7.342;2022-11-27T12:33:17;0.57;;;0.20;;
47984;SDS011;33753;52.912;-7.342;2022-11-27T12:35:57;0.85;;;0.20;;
47984;SDS011;33753;52.912;-7.342;2022-11-27T12:38:48;0.82;;;0.20;;
47984;SDS011;33753;52.912;-7.342;2022-11-27T12:44:20;0.77;;;0.05;;
47984;SDS011;33753;52.912;-7.342;2022-11-27T12:49:26;1.13;;;0.32;;
47984;SDS011;33753;52.912;-7.342;2022-11-27T12:52:00;1.13;;;0.15;;
47984;SDS011;33753;52.912;-7.342;2022-11-27T12:54:34;0.95;;;0.10;;
47984;SDS011;33753;52.912;-7.342;2022-11-27T12:57:10;0.95;;;0.32;;
47984;SDS011;33753;52.912;-7.342;2022-11-27T12:59:47;3.03;;;0.57;;
47984;SDS011;33753;52.912;-7.342;2022-11-27T13:02:22;2.17;;;0.30;;
47984;SDS011;33753;52.912;-7.342;2022-11-27T13:04:56;2.17;;;0.70;;
47984;SDS011;33753;52.912;-7.342;2022-11-27T13:07:29;4.63;;;1.05;;
47984;SDS011;33753;52.912;-7.342;2022-11-27T13:10:09;2.92;;;0.35;;
47984;SDS011;33753;52.912;-7.342;2022-11-27T13:12:53;3.67;;;0.50;;
47984;SDS011;33753;52.912;-7.342;2022-11-27T13:15:32;6.72;;;0.88;;
47984;SDS011;33753;52.912;-7.342;2022-11-27T13:18:19;4.50;;;0.70;;
47984;SDS011;33753;52.912;-7.342;2022-11-27T13:20:53;4.07;;;0.85;;
47984;SDS011;33753;52.912;-7.342;2022-11-27T13:23:28;3.42;;;1.08;;
47984;SDS011;33753;52.912;-7.342;2022-11-27T13:25:58;4.95;;;0.63;;
47984;SDS011;33753;52.912;-7.342;2022-11-27T13:28:31;2.00;;;0.85;;
47984;SDS011;33753;52.912;-7.342;2022-11-27T13:31:06;1.95;;;0.47;;
47984;SDS011;33753;52.912;-7.342;2022-11-27T13:33:42;3.80;;;0.40;;
47984;SDS011;33753;52.912;-7.342;2022-11-27T13:36:16;7.03;;;1.00;;
47984;SDS011;33753;52.912;-7.342;2022-11-27T13:38:51;4.45;;;1.23;;
47984;SDS011;33753;52.912;-7.342;2022-11-27T13:41:28;6.53;;;0.90;;
47984;SDS011;33753;52.912;-7.342;2022-11-27T13:43:59;6.45;;;1.10;;
47984;SDS011;33753;52.912;-7.342;2022-11-27T13:46:42;6.30;;;1.00;;
47984;SDS011;33753;52.912;-7.342;2022-11-27T13:49:21;6.97;;;1.45;;
47984;SDS011;33753;52.912;-7.342;2022-11-27T13:52:02;15.30;;;2.63;;
47984;SDS011;33753;52.912;-7.342;2022-11-27T13:54:33;9.48;;;2.05;;
47984;SDS011;33753;52.912;-7.342;2022-11-27T13:57:08;8.20;;;2.25;;
47984;SDS011;33753;52.912;-7.342;2022-11-27T13:59:40;7.25;;;2.60;;
47984;SDS011;33753;52.912;-7.342;2022-11-27T14:02:10;11.15;;;2.47;;
47984;SDS011;33753;52.912;-7.342;2022-11-27T14:04:46;9.68;;;1.30;;
47984;SDS011;33753;52.912;-7.342;2022-11-27T14:07:21;8.40;;;1.38;;
47984;SDS011;33753;52.912;-7.342;2022-11-27T14:09:51;9.57;;;1.33;;
47984;SDS011;33753;52.912;-7.342;2022-11-27T14:12:23;6.88;;;1.15;;
47984;SDS011;33753;52.912;-7.342;2022-11-27T14:15:03;9.07;;;1.70;;
47984;SDS011;33753;52.912;-7.342;2022-11-27T14:17:39;10.13;;;1.88;;
47984;SDS011;33753;52.912;-7.342;2022-11-27T14:20:20;6.47;;;2.20;;
47984;SDS011;33753;52.912;-7.342;2022-11-27T14:22:54;7.72;;;0.98;;
47984;SDS011;33753;52.912;-7.342;2022-11-27T14:25:38;8.70;;;1.38;;
47984;SDS011;33753;52.912;-7.342;2022-11-27T14:28:10;10.93;;;1.52;;
47984;SDS011;33753;52.912;-7.342;2022-11-27T14:30:44;5.18;;;1.50;;
47984;SDS011;33753;52.912;-7.342;2022-11-27T14:33:19;7.60;;;1.48;;
47984;SDS011;33753;52.912;-7.342;2022-11-27T14:35:49;10.30;;;1.48;;
47984;SDS011;33753;52.912;-7.342;2022-11-27T14:38:20;8.20;;;1.95;;
47984;SDS011;33753;52.912;-7.342;2022-11-27T14:40:50;9.45;;;2.03;;
47984;SDS011;33753;52.912;-7.342;2022-11-27T14:43:34;15.13;;;2.17;;
47984;SDS011;33753;52.912;-7.342;2022-11-27T14:46:12;6.57;;;1.35;;
47984;SDS011;33753;52.912;-7.342;2022-11-27T14:48:45;8.63;;;2.17;;
47984;SDS011;33753;52.912;-7.342;2022-11-27T14:51:16;8.80;;;1.40;;
47984;SDS011;33753;52.912;-7.342;2022-11-27T14:53:47;10.80;;;1.65;;
47984;SDS011;33753;52.912;-7.342;2022-11-27T14:56:18;5.57;;;1.48;;
47984;SDS011;33753;52.912;-7.342;2022-11-27T14:58:58;4.95;;;0.75;;
47984;SDS011;33753;52.912;-7.342;2022-11-27T15:01:28;7.68;;;1.38;;
47984;SDS011;33753;52.912;-7.342;2022-11-27T15:04:00;9.38;;;1.38;;
47984;SDS011;33753;52.912;-7.342;2022-11-27T15:06:44;6.00;;;1.00;;
47984;SDS011;33753;52.912;-7.342;2022-11-27T15:09:15;8.63;;;1.20;;
47984;SDS011;33753;52.912;-7.342;2022-11-27T15:11:58;3.75;;;1.05;;
47984;SDS011;33753;52.912;-7.342;2022-11-27T15:14:31;6.50;;;1.23;;
47984;SDS011;33753;52.912;-7.342;2022-11-27T15:19:31;5.65;;;1.25;;
47984;SDS011;33753;52.912;-7.342;2022-11-27T15:22:02;7.22;;;2.20;;
47984;SDS011;33753;52.912;-7.342;2022-11-27T15:24:32;9.07;;;2.10;;
47984;SDS011;33753;52.912;-7.342;2022-11-27T15:27:06;8.13;;;1.92;;
47984;SDS011;33753;52.912;-7.342;2022-11-27T15:29:45;8.55;;;2.25;;
47984;SDS011;33753;52.912;-7.342;2022-11-27T15:32:33;6.38;;;1.45;;
47984;SDS011;33753;52.912;-7.342;2022-11-27T15:35:22;6.25;;;1.00;;
47984;SDS011;33753;52.912;-7.342;2022-11-27T15:37:53;6.80;;;1.83;;
47984;SDS011;33753;52.912;-7.342;2022-11-27T15:40:28;7.07;;;1.30;;
47984;SDS011;33753;52.912;-7.342;2022-11-27T15:43:01;8.98;;;2.13;;
47984;SDS011;33753;52.912;-7.342;2022-11-27T15:45:33;6.65;;;1.88;;
47984;SDS011;33753;52.912;-7.342;2022-11-27T15:48:01;7.97;;;1.88;;
47984;SDS011;33753;52.912;-7.342;2022-11-27T15:50:32;7.45;;;1.60;;
47984;SDS011;33753;52.912;-7.342;2022-11-27T15:53:00;9.27;;;1.50;;
47984;SDS011;33753;52.912;-7.342;2022-11-27T15:55:28;8.77;;;1.42;;
47984;SDS011;33753;52.912;-7.342;2022-11-27T15:57:59;8.00;;;2.25;;
47984;SDS011;33753;52.912;-7.342;2022-11-27T16:00:27;8.52;;;1.52;;
47984;SDS011;33753;52.912;-7.342;2022-11-27T16:02:55;14.25;;;2.08;;
47984;SDS011;33753;52.912;-7.342;2022-11-27T16:05:24;5.35;;;1.10;;
47984;SDS011;33753;52.912;-7.342;2022-11-27T16:08:05;9.55;;;1.40;;
47984;SDS011;33753;52.912;-7.342;2022-11-27T16:10:33;6.85;;;1.55;;
47984;SDS011;33753;52.912;-7.342;2022-11-27T16:13:03;8.50;;;1.00;;
47984;SDS011;33753;52.912;-7.342;2022-11-27T16:15:31;5.20;;;0.95;;